»·PEaware :: N787PG KGEG-KHQM

N787PG :: KGEG-KHQM

FLIGHT INFORMATION

Flight Status: Arrived
Operator: Privately registered:
United States
More flights under this callsign
Pilot: Gareth S. (19921)
Aircraft: CIRRUS SR-22
(SR22)
More flights by this aircraft type
Origin: KGEG Spokane Intl
United States
Destination: KHQM Bowerman
United States
More flights between these airports :: More routes between these airports
Route:
File this flight plan on PilotEdge
Remarks:
Altitude:
(Current/Filed)
8,500ft
Speed:
(Current/Filed)
150kts
Departed: 11-Aug-20 11:14 AM
Arrived: 11-Aug-20 02:56 PM
Distance/Time
Traveled:
263nm/3:42
Distance/Time
To Go:
Arrived

Flight Plot

Page will automatically refresh every two minutes.

Flight plan parsing failed; only flown route is shown


Map Options




Map Legend


Flown Route
Filed Route
Departure Airport
Arrival Airport
Navaid (VOR, NDB)
Fix

Horizontal Profiles

Position Reports

Time Latitude Longitude Heading Altitude Ground
Speed
11-Aug-20 10:27 47.618828 -117.528489 180 2367ft 0kts
11-Aug-20 10:28 47.618828 -117.528489 180 2367ft 0kts
11-Aug-20 10:29 47.618828 -117.528489 180 2367ft 0kts
11-Aug-20 10:30 47.618828 -117.528489 180 2367ft 0kts
11-Aug-20 10:31 47.618828 -117.528489 180 2367ft 0kts
11-Aug-20 10:32 47.618828 -117.528489 180 2367ft 0kts
11-Aug-20 10:33 47.618828 -117.528489 180 2367ft 0kts
11-Aug-20 10:34 47.618828 -117.528489 180 2367ft 0kts
11-Aug-20 10:35 47.618828 -117.528489 180 2367ft 0kts
11-Aug-20 10:36 47.618828 -117.528489 180 2367ft 0kts
11-Aug-20 10:37 47.618828 -117.528489 180 2367ft 0kts
11-Aug-20 10:38 47.618828 -117.528489 180 2367ft 0kts
11-Aug-20 10:39 47.618828 -117.528489 180 2367ft 0kts
11-Aug-20 10:40 47.618828 -117.528489 180 2367ft 0kts
11-Aug-20 10:41 47.618828 -117.528489 180 2367ft 0kts
11-Aug-20 10:42 47.618828 -117.528489 180 2367ft 0kts
11-Aug-20 10:43 47.618828 -117.528489 180 2367ft 0kts
11-Aug-20 10:44 47.618828 -117.528489 180 2367ft 0kts
11-Aug-20 10:45 47.618828 -117.528489 180 2367ft 0kts
11-Aug-20 10:46 47.618828 -117.528489 180 2367ft 0kts
11-Aug-20 10:47 47.618828 -117.528489 180 2367ft 0kts
11-Aug-20 10:48 47.618828 -117.528489 180 2367ft 0kts
11-Aug-20 10:49 47.618828 -117.528489 180 2367ft 0kts
11-Aug-20 10:50 47.618828 -117.528489 180 2367ft 0kts
11-Aug-20 10:51 47.618828 -117.528489 180 2367ft 0kts
11-Aug-20 10:52 47.618828 -117.528489 180 2367ft 0kts
11-Aug-20 10:53 47.618828 -117.528489 180 2367ft 0kts
11-Aug-20 10:54 47.618828 -117.528489 180 2367ft 0kts
11-Aug-20 10:55 47.618828 -117.528489 180 2367ft 0kts
11-Aug-20 10:56 47.618828 -117.528489 180 2367ft 0kts
11-Aug-20 10:57 47.618828 -117.528489 180 2367ft 0kts
11-Aug-20 10:58 47.618828 -117.528489 180 2367ft 0kts
11-Aug-20 10:59 47.618828 -117.528489 180 2367ft 0kts
11-Aug-20 11:00 47.618828 -117.528489 180 2367ft 0kts
11-Aug-20 11:01 47.618828 -117.528489 180 2367ft 0kts
11-Aug-20 11:02 47.618822 -117.528490 185 2367ft 0kts
11-Aug-20 11:03 47.619594 -117.529367 356 2365ft 15kts
11-Aug-20 11:04 47.622837 -117.527348 47 2355ft 8kts
11-Aug-20 11:05 47.625932 -117.522762 46 2342ft 23kts
11-Aug-20 11:06 47.629447 -117.517433 45 2325ft 17kts
11-Aug-20 11:07 47.630309 -117.517193 324 2321ft 0kts
11-Aug-20 11:08 47.630309 -117.517193 324 2321ft 0kts
11-Aug-20 11:09 47.630309 -117.517193 324 2321ft 0kts
11-Aug-20 11:10 47.630521 -117.517484 317 2320ft 6kts
11-Aug-20 11:11 47.630553 -117.517526 320 2320ft 0kts
11-Aug-20 11:12 47.630553 -117.517526 320 2320ft 0kts
11-Aug-20 11:13 47.629455 -117.521067 222 2329ft 61kts
11-Aug-20 11:14 47.611267 -117.548902 220 3147ft 107kts
11-Aug-20 11:15 47.584987 -117.526029 133 3454ft 158kts
11-Aug-20 11:16 47.543066 -117.518936 179 3558ft 159kts
11-Aug-20 11:17 47.499447 -117.519243 173 3738ft 159kts
11-Aug-20 11:18 47.467976 -117.541652 278 3941ft 161kts
11-Aug-20 11:19 47.477416 -117.601405 212 3665ft 165kts
11-Aug-20 11:20 47.443061 -117.644491 225 3550ft 159kts
11-Aug-20 11:21 47.413290 -117.693211 225 3549ft 158kts
11-Aug-20 11:22 47.384885 -117.739757 225 3554ft 145kts
11-Aug-20 11:23 47.358001 -117.783749 226 3554ft 148kts
11-Aug-20 11:24 47.331385 -117.827331 226 3544ft 140kts
11-Aug-20 11:25 47.304088 -117.872104 225 3551ft 148kts
11-Aug-20 11:26 47.276732 -117.917048 226 3756ft 137kts
11-Aug-20 11:27 47.253593 -117.955660 226 4463ft 119kts
11-Aug-20 11:28 47.228154 -117.997646 226 4496ft 147kts
11-Aug-20 11:29 47.198973 -118.041377 220 4488ft 151kts
11-Aug-20 11:30 47.165985 -118.078646 208 4490ft 150kts
11-Aug-20 11:31 47.129527 -118.109325 212 4489ft 150kts
11-Aug-20 11:32 47.094371 -118.142802 212 4491ft 150kts
11-Aug-20 11:34 47.059553 -118.175798 212 4488ft 149kts
11-Aug-20 11:35 47.025668 -118.211113 224 4490ft 149kts
11-Aug-20 11:36 47.000064 -118.258542 238 4490ft 149kts
11-Aug-20 11:37 46.984299 -118.317635 268 3794ft 176kts
11-Aug-20 11:38 46.989608 -118.383112 269 3646ft 159kts
11-Aug-20 11:39 46.988387 -118.449530 263 3238ft 159kts
11-Aug-20 11:40 46.981640 -118.514427 262 3031ft 161kts
11-Aug-20 11:41 46.979380 -118.579605 239 1731ft 144kts
11-Aug-20 11:42 46.978240 -118.621728 342 2462ft 126kts
11-Aug-20 11:43 46.969111 -118.623794 117 2373ft 153kts
11-Aug-20 11:44 46.935185 -118.606046 182 2564ft 144kts
11-Aug-20 11:45 46.895277 -118.601431 183 2667ft 144kts
11-Aug-20 11:46 46.853529 -118.604252 168 2739ft 138kts
11-Aug-20 11:47 46.814200 -118.596355 180 2840ft 142kts
11-Aug-20 11:48 46.775008 -118.596561 181 3111ft 139kts
11-Aug-20 11:49 46.744612 -118.578816 89 3118ft 164kts
11-Aug-20 11:50 46.730985 -118.526873 190 3060ft 153kts
11-Aug-20 11:51 46.689333 -118.529432 165 2301ft 124kts
11-Aug-20 11:51 46.665262 -118.522776 178 1951ft 94kts
11-Aug-20 11:53 46.648398 -118.549179 271 1550ft 114kts
11-Aug-20 11:54 46.648509 -118.585845 270 886ft 72kts
11-Aug-20 11:54 46.646441 -118.617106 236 1236ft 115kts
11-Aug-20 11:55 46.634076 -118.661811 264 1225ft 135kts
11-Aug-20 11:56 46.640414 -118.708624 254 1042ft 112kts
11-Aug-20 11:57 46.646403 -118.753830 288 1362ft 115kts
11-Aug-20 11:58 46.662708 -118.793308 331 1702ft 132kts
11-Aug-20 11:59 46.690082 -118.830900 284 1923ft 137kts
11-Aug-20 12:00 46.671604 -118.846638 135 1595ft 126kts
11-Aug-20 12:01 46.651117 -118.820872 89 1515ft 95kts
11-Aug-20 12:02 46.661211 -118.822794 268 968ft 86kts
11-Aug-20 12:03 46.661053 -118.860779 227 1609ft 116kts
11-Aug-20 12:04 46.628491 -118.875346 231 1828ft 148kts
11-Aug-20 12:05 46.607535 -118.925851 241 1947ft 151kts
11-Aug-20 12:06 46.586066 -118.978052 218 2078ft 149kts
11-Aug-20 12:07 46.577888 -119.032196 265 2513ft 154kts
11-Aug-20 12:08 46.575647 -119.094571 265 2500ft 151kts
11-Aug-20 12:09 46.573700 -119.155041 265 2502ft 148kts
11-Aug-20 12:10 46.572146 -119.210199 265 2496ft 126kts
11-Aug-20 12:11 46.570717 -119.261972 262 2516ft 137kts
11-Aug-20 12:12 46.567041 -119.319005 262 2580ft 139kts
11-Aug-20 12:13 46.564840 -119.375891 265 2587ft 142kts
11-Aug-20 12:14 46.563330 -119.433415 265 2588ft 143kts
11-Aug-20 12:15 46.561794 -119.492074 265 2586ft 144kts
11-Aug-20 12:16 46.560209 -119.550219 265 2587ft 143kts
11-Aug-20 12:17 46.558631 -119.608439 265 2587ft 144kts
11-Aug-20 12:18 46.540770 -119.658699 238 2948ft 135kts
11-Aug-20 12:19 46.522298 -119.704417 238 3822ft 130kts
11-Aug-20 12:20 46.503396 -119.750426 238 4536ft 134kts
11-Aug-20 12:21 46.481961 -119.801764 238 4570ft 157kts
11-Aug-20 12:22 46.458811 -119.857075 238 4564ft 162kts
11-Aug-20 12:23 46.451913 -119.917679 283 4569ft 166kts
11-Aug-20 12:24 46.463913 -119.983507 283 4562ft 164kts
11-Aug-20 12:25 46.475785 -120.047831 283 4564ft 164kts
11-Aug-20 12:26 46.487727 -120.112265 283 4563ft 164kts
11-Aug-20 12:27 46.499793 -120.176014 283 4562ft 162kts
11-Aug-20 12:28 46.511968 -120.239456 283 4517ft 164kts
11-Aug-20 12:29 46.521312 -120.304949 279 3614ft 153kts
11-Aug-20 12:30 46.527679 -120.354731 276 3265ft 136kts
11-Aug-20 12:31 46.535663 -120.413118 287 2354ft 141kts
11-Aug-20 12:32 46.549483 -120.467183 285 1776ft 115kts
11-Aug-20 12:33 46.560430 -120.510647 287 1431ft 96kts
11-Aug-20 12:34 46.568742 -120.543626 293 1169ft 105kts
11-Aug-20 12:35 46.584104 -120.588004 297 2371ft 128kts
11-Aug-20 12:36 46.603609 -120.630262 299 3795ft 122kts
11-Aug-20 12:37 46.622871 -120.672011 299 4590ft 145kts
11-Aug-20 12:38 46.645729 -120.724377 299 4560ft 149kts
11-Aug-20 12:39 46.667315 -120.773714 299 4562ft 140kts
11-Aug-20 12:40 46.688138 -120.822397 299 4564ft 138kts
11-Aug-20 12:41 46.708041 -120.871227 279 4656ft 130kts
11-Aug-20 12:42 46.689304 -120.920938 237 4644ft 145kts
11-Aug-20 12:43 46.678223 -120.979722 263 4741ft 155kts
11-Aug-20 12:44 46.671623 -121.044106 263 4395ft 160kts
11-Aug-20 12:45 46.665445 -121.106762 264 4173ft 154kts
11-Aug-20 12:46 46.638938 -121.145157 218 3594ft 111kts
11-Aug-20 12:47 46.637086 -121.124775 40 2943ft 76kts
11-Aug-20 12:48 46.650861 -121.094346 29 3954ft 99kts
11-Aug-20 12:49 46.661593 -121.124393 233 4420ft 140kts
11-Aug-20 12:50 46.638953 -121.172455 271 4094ft 149kts
11-Aug-20 12:51 46.637989 -121.228975 264 4977ft 128kts
11-Aug-20 12:52 46.635840 -121.273448 264 6335ft 94kts
11-Aug-20 12:53 46.634661 -121.305952 264 7408ft 76kts
11-Aug-20 12:54 46.632073 -121.354015 264 7386ft 148kts
11-Aug-20 12:55 46.628304 -121.415620 264 7360ft 152kts
11-Aug-20 12:56 46.624909 -121.470228 264 8033ft 125kts
11-Aug-20 12:57 46.621561 -121.521295 264 8505ft 126kts
11-Aug-20 12:58 46.617636 -121.577375 265 8569ft 149kts
11-Aug-20 12:59 46.613282 -121.638532 265 8563ft 154kts
11-Aug-20 13:00 46.614810 -121.699013 310 8555ft 156kts
11-Aug-20 13:01 46.645746 -121.744193 311 8564ft 157kts
11-Aug-20 13:02 46.677269 -121.790015 311 8564ft 157kts
11-Aug-20 13:03 46.708864 -121.835897 311 8564ft 157kts
11-Aug-20 13:04 46.742805 -121.837737 57 8854ft 172kts
11-Aug-20 13:05 46.767962 -121.780875 51 9332ft 159kts
11-Aug-20 13:06 46.792499 -121.722333 54 9375ft 175kts
11-Aug-20 13:07 46.818651 -121.660704 53 9378ft 178kts
11-Aug-20 13:08 46.854261 -121.613701 25 9211ft 181kts
11-Aug-20 13:09 46.898450 -121.590658 23 8772ft 171kts
11-Aug-20 13:10 46.930569 -121.542415 24 7183ft 149kts
11-Aug-20 13:11 46.974572 -121.534627 357 4718ft 163kts
11-Aug-20 13:12 47.013313 -121.538662 316 3501ft 85kts
11-Aug-20 13:13 47.023063 -121.539978 114 3191ft 85kts
11-Aug-20 13:14 47.004532 -121.523134 146 3476ft 86kts
11-Aug-20 13:15 47.005381 -121.514824 123 4310ft 89kts
11-Aug-20 13:16 47.001447 -121.529243 332 3879ft 80kts
11-Aug-20 13:17 47.021693 -121.551114 321 3242ft 112kts
11-Aug-20 13:18 47.055766 -121.574987 344 2963ft 145kts
11-Aug-20 13:19 47.075042 -121.580385 117 3363ft 90kts
11-Aug-20 13:20 47.045768 -121.567831 153 3382ft 96kts
11-Aug-20 13:21 47.026909 -121.542067 125 2942ft 93kts
11-Aug-20 13:22 47.012186 -121.533240 330 2584ft 7kts
11-Aug-20 13:23 47.017750 -121.534850 277 2567ft 7kts
11-Aug-20 13:24 47.017713 -121.535033 224 2567ft 0kts
11-Aug-20 13:25 47.017713 -121.535033 224 2567ft 0kts
11-Aug-20 13:26 47.017713 -121.535033 224 2567ft 0kts
11-Aug-20 13:27 47.017713 -121.535033 224 2567ft 0kts
11-Aug-20 13:29 47.017713 -121.535033 224 2567ft 0kts
11-Aug-20 13:30 47.017713 -121.535033 224 2567ft 0kts
11-Aug-20 13:31 47.017713 -121.535033 224 2567ft 0kts
11-Aug-20 13:32 47.017713 -121.535033 224 2567ft 0kts
11-Aug-20 13:33 47.017713 -121.535033 224 2567ft 0kts
11-Aug-20 13:34 47.017713 -121.535033 224 2567ft 0kts
11-Aug-20 13:35 47.017713 -121.535033 224 2567ft 0kts
11-Aug-20 13:36 47.017713 -121.535033 224 2567ft 0kts
11-Aug-20 13:37 47.017713 -121.535033 224 2567ft 0kts
11-Aug-20 13:38 47.017713 -121.535033 224 2567ft 0kts
11-Aug-20 13:39 47.017713 -121.535033 224 2567ft 0kts
11-Aug-20 13:40 47.017713 -121.535033 224 2567ft 0kts
11-Aug-20 13:41 47.017713 -121.535033 224 2567ft 0kts
11-Aug-20 13:42 47.017395 -121.535371 210 2568ft 10kts
11-Aug-20 13:43 47.009570 -121.532297 166 2586ft 32kts
11-Aug-20 13:44 47.008577 -121.531904 342 2587ft 0kts
11-Aug-20 13:45 47.008578 -121.531904 341 2587ft 0kts
11-Aug-20 13:46 47.014391 -121.534012 346 2688ft 84kts
11-Aug-20 13:46 47.032380 -121.553730 309 3487ft 113kts
11-Aug-20 13:47 47.063517 -121.578413 338 4287ft 134kts
11-Aug-20 13:49 47.062610 -121.590819 138 5290ft 136kts
11-Aug-20 13:49 47.039557 -121.558204 140 5967ft 136kts
11-Aug-20 13:50 47.009983 -121.524414 159 6852ft 132kts
11-Aug-20 13:52 46.969361 -121.533448 194 7885ft 127kts
11-Aug-20 13:52 46.940840 -121.542483 194 8603ft 125kts
11-Aug-20 13:53 46.908500 -121.563444 249 8988ft 138kts
11-Aug-20 13:54 46.904968 -121.619906 297 9165ft 148kts
11-Aug-20 13:55 46.933753 -121.661524 309 9361ft 151kts
11-Aug-20 13:56 46.931779 -121.713787 243 9617ft 145kts
11-Aug-20 13:57 46.942596 -121.771911 308 8995ft 173kts
11-Aug-20 13:58 46.983884 -121.808938 332 8394ft 175kts
11-Aug-20 13:59 47.006979 -121.861252 240 7315ft 185kts
11-Aug-20 14:00 46.996078 -121.932551 266 6426ft 180kts
11-Aug-20 14:01 47.004120 -122.004622 297 5384ft 178kts
11-Aug-20 14:02 47.024300 -122.068137 296 4716ft 176kts
11-Aug-20 14:03 47.038857 -122.129618 254 3794ft 160kts
11-Aug-20 14:04 47.006094 -122.178368 211 2324ft 172kts
11-Aug-20 14:05 46.986454 -122.167429 29 2968ft 121kts
11-Aug-20 14:06 46.989359 -122.189724 156 3432ft 133kts
11-Aug-20 14:07 47.005542 -122.180065 273 3283ft 149kts
11-Aug-20 14:08 46.974222 -122.224222 218 2215ft 161kts
11-Aug-20 14:09 46.935119 -122.254147 182 1655ft 149kts
11-Aug-20 14:10 46.898765 -122.254119 187 1533ft 96kts
11-Aug-20 14:11 46.875421 -122.256755 189 852ft 82kts
11-Aug-20 14:12 46.861277 -122.271200 278 1605ft 85kts
11-Aug-20 14:13 46.854966 -122.313898 253 2147ft 129kts
11-Aug-20 14:14 46.845542 -122.365954 253 2815ft 139kts
11-Aug-20 14:15 46.835326 -122.421742 254 3552ft 140kts
11-Aug-20 14:16 46.824752 -122.480780 255 3731ft 149kts
11-Aug-20 14:17 46.815757 -122.529741 255 3730ft 118kts
11-Aug-20 14:18 46.806520 -122.581294 255 3752ft 150kts
11-Aug-20 14:19 46.795692 -122.640670 255 3707ft 127kts
11-Aug-20 14:20 46.787345 -122.686557 255 3761ft 131kts
11-Aug-20 14:21 46.803259 -122.737265 308 3371ft 141kts
11-Aug-20 14:22 46.838980 -122.760981 331 3386ft 140kts
11-Aug-20 14:23 46.873048 -122.792784 321 3234ft 149kts
11-Aug-20 14:24 46.905477 -122.826264 314 2328ft 132kts
11-Aug-20 14:25 46.933582 -122.863336 324 1686ft 132kts
11-Aug-20 14:26 46.967113 -122.882365 4 1164ft 141kts
11-Aug-20 14:27 46.994810 -122.884931 275 905ft 79kts
11-Aug-20 14:28 46.981125 -122.900891 193 293ft 76kts
11-Aug-20 14:29 46.957978 -122.907954 194 821ft 99kts
11-Aug-20 14:30 46.979049 -122.888164 4 1173ft 176kts
11-Aug-20 14:31 47.027223 -122.882659 5 1641ft 173kts
11-Aug-20 14:32 47.074444 -122.881053 333 2015ft 166kts
11-Aug-20 14:33 47.085190 -122.940737 259 2464ft 158kts
11-Aug-20 14:34 47.074208 -123.005299 250 2588ft 167kts
11-Aug-20 14:35 47.061182 -123.073560 255 2326ft 172kts
11-Aug-20 14:36 47.053287 -123.142574 269 2037ft 158kts
11-Aug-20 14:37 47.055764 -123.204314 254 1760ft 156kts
11-Aug-20 14:38 47.046493 -123.263458 266 1502ft 146kts
11-Aug-20 14:39 47.034056 -123.316449 233 1266ft 142kts
11-Aug-20 14:40 47.013315 -123.356988 239 644ft 105kts
11-Aug-20 14:41 47.002575 -123.385820 233 730ft 87kts
11-Aug-20 14:42 46.991068 -123.414745 257 279ft 67kts
11-Aug-20 14:43 46.990128 -123.439960 249 268ft 71kts
11-Aug-20 14:44 46.969121 -123.462899 231 1073ft 116kts
11-Aug-20 14:45 46.980437 -123.491067 330 1662ft 146kts
11-Aug-20 14:46 46.982573 -123.550407 256 1467ft 151kts
11-Aug-20 14:47 46.972799 -123.609503 262 1647ft 149kts
11-Aug-20 14:48 46.972679 -123.672024 272 1710ft 150kts
11-Aug-20 14:49 46.969011 -123.734954 263 1377ft 154kts
11-Aug-20 14:50 46.967462 -123.797883 281 826ft 134kts
11-Aug-20 14:51 46.974707 -123.840506 279 968ft 108kts
11-Aug-20 14:52 46.978104 -123.873941 267 759ft 76kts
11-Aug-20 14:53 46.975124 -123.903404 260 412ft 67kts
11-Aug-20 14:54 46.972030 -123.929494 259 17ft 52kts
11-Aug-20 14:55 46.972796 -123.932059 71 17ft 0kts
11-Aug-20 14:56 46.972997 -123.931134 54 17ft 11kts
11-Aug-20 14:57 46.973492 -123.929096 358 16ft 9kts
11-Aug-20 14:58 46.973534 -123.929241 165 16ft 0kts
11-Aug-20 14:59 46.973534 -123.929241 165 16ft 0kts
11-Aug-20 15:00 46.973534 -123.929241 165 16ft 0kts
11-Aug-20 15:01 46.973534 -123.929241 165 16ft 0kts
11-Aug-20 15:02 46.973534 -123.929241 165 16ft 0kts
11-Aug-20 15:03 46.973534 -123.929241 165 16ft 0kts

Navigation Log

Ident Type
Flight plan parsing failed, navigation log unavailable